createdAt,value
2023-04-29T00:01:38.957Z,72.17
2023-04-29T00:04:05.623Z,72.73
2023-04-29T00:06:32.289Z,73.74
2023-04-29T00:08:58.862Z,72.99
2023-04-29T00:11:25.398Z,73.34
2023-04-29T00:13:51.874Z,73.92
2023-04-29T00:16:18.620Z,74.54
2023-04-29T00:18:45.155Z,75.01
2023-04-29T00:21:11.618Z,75.18
2023-04-29T00:23:38.131Z,75.40
2023-04-29T00:26:04.632Z,75.80
2023-04-29T00:28:31.708Z,76.28
2023-04-29T00:30:58.461Z,76.12
2023-04-29T00:33:25.040Z,76.17
2023-04-29T00:35:51.582Z,75.73
2023-04-29T00:38:18.035Z,75.78
2023-04-29T00:40:44.532Z,75.57
2023-04-29T00:43:13.813Z,76.38
2023-04-29T00:45:40.409Z,76.34
2023-04-29T00:48:07.697Z,76.40
2023-04-29T00:50:34.411Z,76.27
2023-04-29T00:53:00.997Z,75.67
2023-04-29T00:55:27.534Z,75.85
2023-04-29T00:57:54.034Z,76.09
2023-04-29T01:00:20.673Z,76.42
2023-04-29T01:02:48.190Z,76.42
2023-04-29T01:05:15.331Z,76.59
2023-04-29T01:07:52.682Z,76.13
2023-04-29T01:10:27.642Z,76.11
2023-04-29T01:13:42.426Z,75.86
2023-04-29T01:16:17.357Z,75.75
2023-04-29T01:18:50.093Z,75.85
2023-04-29T01:21:16.553Z,75.70
2023-04-29T01:23:44.187Z,75.43
2023-04-29T01:26:10.779Z,75.28
2023-04-29T01:28:40.767Z,75.04
2023-04-29T01:31:23.945Z,75.23
2023-04-29T01:34:10.384Z,75.29
2023-04-29T01:36:49.052Z,74.78
2023-04-29T01:39:21.269Z,74.48
2023-04-29T01:42:02.931Z,74.04
2023-04-29T01:44:29.779Z,74.43
2023-04-29T01:46:56.457Z,74.34
2023-04-29T01:49:26.515Z,74.64
2023-04-29T01:51:52.958Z,74.84
2023-04-29T01:54:19.528Z,75.02
2023-04-29T01:56:46.042Z,74.96
2023-04-29T01:59:12.756Z,75.53
2023-04-29T02:01:39.249Z,75.09
2023-04-29T02:04:05.779Z,75.02
2023-04-29T02:06:33.519Z,74.61
2023-04-29T02:09:00.098Z,74.54
2023-04-29T02:11:27.019Z,74.47
2023-04-29T02:13:54.658Z,74.73
2023-04-29T02:16:21.232Z,74.58
2023-04-29T02:18:47.727Z,74.82
2023-04-29T02:21:14.175Z,75.60
2023-04-29T02:23:40.717Z,75.76
2023-04-29T02:26:07.411Z,76.92
2023-04-29T02:28:34.986Z,77.29
2023-04-29T02:31:01.654Z,77.47
2023-04-29T02:33:28.323Z,77.81
2023-04-29T02:35:54.886Z,77.61
2023-04-29T02:38:21.405Z,77.16
2023-04-29T02:40:47.898Z,77.66
2023-04-29T02:43:14.356Z,76.99
2023-04-29T02:45:40.929Z,77.18
2023-04-29T02:48:07.589Z,77.78
2023-04-29T02:50:34.181Z,78.46
2023-04-29T02:53:00.724Z,78.91
2023-04-29T02:55:27.307Z,79.02
2023-04-29T02:57:53.767Z,79.48
2023-04-29T03:00:21.116Z,79.60
2023-04-29T03:02:47.747Z,79.66
2023-04-29T03:05:14.398Z,80.17
2023-04-29T03:07:40.909Z,80.72
2023-04-29T03:10:07.946Z,80.80
2023-04-29T03:12:34.724Z,81.03
2023-04-29T03:15:01.321Z,80.91
2023-04-29T03:17:27.865Z,80.78
2023-04-29T03:19:54.595Z,80.43
2023-04-29T03:22:21.287Z,79.79
2023-04-29T03:24:47.755Z,79.80
2023-04-29T03:27:14.242Z,79.90
2023-04-29T03:29:40.753Z,79.92
2023-04-29T03:32:07.310Z,79.94
2023-04-29T03:34:34.374Z,79.92
2023-04-29T03:37:01.247Z,79.87
2023-04-29T03:39:32.177Z,79.72
2023-04-29T03:41:59.613Z,80.05
2023-04-29T03:44:26.346Z,80.17
2023-04-29T03:46:52.843Z,80.35
2023-04-29T03:49:19.358Z,80.34
2023-04-29T03:51:45.812Z,80.22
2023-04-29T03:54:13.099Z,80.30
2023-04-29T03:56:39.784Z,80.29
2023-04-29T03:59:06.410Z,80.58
2023-04-29T04:01:33.306Z,79.96
2023-04-29T04:04:00.206Z,79.89
2023-04-29T04:06:26.981Z,80.56
2023-04-29T04:08:53.431Z,80.38
2023-04-29T04:11:19.879Z,80.78
2023-04-29T04:13:46.371Z,80.87
2023-04-29T04:16:12.901Z,80.56
2023-04-29T04:18:39.552Z,80.98
2023-04-29T04:21:07.802Z,80.38
2023-04-29T04:23:34.312Z,80.37
2023-04-29T04:26:00.801Z,81.04
2023-04-29T04:28:27.371Z,81.19
2023-04-29T04:30:53.862Z,81.28
2023-04-29T04:33:20.384Z,81.15
2023-04-29T04:35:46.963Z,81.29
2023-04-29T04:38:13.606Z,81.96
2023-04-29T04:40:42.985Z,81.20
2023-04-29T04:43:09.503Z,81.60
2023-04-29T04:45:36.628Z,81.44
2023-04-29T04:48:03.300Z,81.20
2023-04-29T04:50:29.976Z,81.12
2023-04-29T04:52:56.920Z,80.88
2023-04-29T04:55:23.740Z,80.90
2023-04-29T04:57:50.608Z,81.13
2023-04-29T05:00:17.283Z,80.63
2023-04-29T05:02:43.943Z,80.87
2023-04-29T05:05:10.519Z,80.95
2023-04-29T05:07:37.012Z,81.42
2023-04-29T05:10:03.740Z,82.51
2023-04-29T05:12:30.994Z,82.17
2023-04-29T05:14:57.780Z,83.47
2023-04-29T05:17:24.278Z,86.04
2023-04-29T05:19:51.309Z,86.00
2023-04-29T05:22:17.870Z,85.99
2023-04-29T05:24:44.358Z,84.48
2023-04-29T05:27:10.908Z,83.77
2023-04-29T05:29:38.036Z,83.73
2023-04-29T05:32:04.733Z,83.27
2023-04-29T05:34:31.289Z,83.31
2023-04-29T05:36:57.825Z,83.12
2023-04-29T05:39:24.321Z,83.23
2023-04-29T05:41:50.869Z,82.69
2023-04-29T05:44:17.324Z,82.41
2023-04-29T05:46:43.848Z,82.51
2023-04-29T05:49:10.383Z,82.55
2023-04-29T05:51:36.963Z,81.19
2023-04-29T05:54:03.482Z,81.12
2023-04-29T05:56:29.957Z,81.21
2023-04-29T05:58:56.436Z,81.10
2023-04-29T06:01:23.400Z,80.88
2023-04-29T06:03:50.153Z,80.78
2023-04-29T06:06:16.922Z,80.89
2023-04-29T06:08:43.582Z,81.50
2023-04-29T06:11:10.243Z,80.71
2023-04-29T06:13:36.781Z,79.71
2023-04-29T06:16:03.656Z,80.00
2023-04-29T06:18:30.222Z,79.60
2023-04-29T06:20:56.684Z,79.37
2023-04-29T06:23:23.170Z,79.44
2023-04-29T06:25:51.615Z,79.46
2023-04-29T06:28:19.266Z,79.37
2023-04-29T06:30:46.496Z,78.70
2023-04-29T06:33:13.839Z,77.93
2023-04-29T06:35:41.231Z,77.80
2023-04-29T06:38:10.918Z,77.62
2023-04-29T06:40:37.381Z,76.64
2023-04-29T06:43:04.490Z,75.84
2023-04-29T06:45:31.635Z,75.78
2023-04-29T06:47:58.205Z,76.34
2023-04-29T06:50:24.727Z,74.67
2023-04-29T06:52:51.391Z,74.81
2023-04-29T06:55:17.918Z,74.89
2023-04-29T06:57:44.385Z,75.29
2023-04-29T07:00:11.516Z,74.71
2023-04-29T07:02:39.081Z,74.80
2023-04-29T07:05:06.462Z,73.72
2023-04-29T07:07:33.062Z,73.76
2023-04-29T07:09:59.540Z,73.03
2023-04-29T07:12:26.518Z,72.52
2023-04-29T07:14:53.200Z,72.21
2023-04-29T07:17:20.743Z,70.75
2023-04-29T07:19:47.240Z,70.83
2023-04-29T07:22:13.721Z,70.01
2023-04-29T07:24:40.312Z,71.80
2023-04-29T07:27:06.947Z,71.73
2023-04-29T07:29:33.437Z,70.67
2023-04-29T07:31:59.913Z,70.29
2023-04-29T07:34:26.422Z,70.63
2023-04-29T07:36:52.870Z,69.44
2023-04-29T07:39:19.347Z,70.14
2023-04-29T07:41:45.885Z,69.60
2023-04-29T07:44:12.423Z,68.67
2023-04-29T07:46:39.067Z,70.52
2023-04-29T07:49:06.883Z,69.71
2023-04-29T07:51:33.388Z,68.27
2023-04-29T07:53:59.873Z,68.31
2023-04-29T07:56:26.331Z,68.60
2023-04-29T07:58:52.898Z,66.36
2023-04-29T08:01:19.382Z,66.31
2023-04-29T08:03:45.990Z,66.03
2023-04-29T08:06:13.085Z,66.67
2023-04-29T08:08:39.789Z,65.73
2023-04-29T08:11:06.718Z,64.38
2023-04-29T08:13:33.335Z,63.83
2023-04-29T08:15:59.884Z,63.50
2023-04-29T08:18:26.593Z,61.49
2023-04-29T08:20:53.219Z,61.22
2023-04-29T08:23:19.733Z,62.04
2023-04-29T08:25:46.278Z,58.50
2023-04-29T08:28:12.953Z,59.66
2023-04-29T08:30:40.810Z,59.17
2023-04-29T08:33:08.209Z,59.53
2023-04-29T08:35:37.580Z,59.67
2023-04-29T08:38:07.065Z,57.47
2023-04-29T08:40:36.948Z,58.33
2023-04-29T08:43:04.281Z,58.60
2023-04-29T08:45:31.326Z,57.95
2023-04-29T08:47:58.161Z,58.40
2023-04-29T08:50:25.657Z,58.54
2023-04-29T08:52:52.112Z,56.75
2023-04-29T08:55:19.118Z,55.60
2023-04-29T08:57:45.712Z,52.90
2023-04-29T09:00:13.085Z,54.93
2023-04-29T09:02:43.700Z,55.04
2023-04-29T09:05:11.285Z,53.70
2023-04-29T09:07:41.745Z,53.34
2023-04-29T09:10:08.596Z,54.06
2023-04-29T09:12:36.093Z,52.26
2023-04-29T09:15:03.134Z,53.43
2023-04-29T09:17:45.995Z,50.96
2023-04-29T09:20:22.073Z,51.32
2023-04-29T09:22:52.488Z,49.36
2023-04-29T09:25:19.173Z,49.13
2023-04-29T09:27:45.835Z,48.09
2023-04-29T09:30:13.523Z,45.59
2023-04-29T09:32:40.031Z,45.22
2023-04-29T09:35:32.898Z,43.66
2023-04-29T09:38:19.750Z,43.52
2023-04-29T09:40:57.659Z,41.72
2023-04-29T09:43:25.236Z,41.19
2023-04-29T09:45:51.857Z,40.86
2023-04-29T09:48:18.636Z,40.12
2023-04-29T09:50:46.928Z,39.05
2023-04-29T09:53:13.412Z,39.53
2023-04-29T09:56:01.462Z,38.56
2023-04-29T09:58:31.496Z,38.72
2023-04-29T10:01:03.860Z,38.17
2023-04-29T10:03:38.430Z,37.83
2023-04-29T10:06:06.286Z,36.18
2023-04-29T10:08:33.336Z,35.90
2023-04-29T10:11:02.333Z,34.84
2023-04-29T10:13:29.041Z,34.95
2023-04-29T10:16:16.038Z,32.83
2023-04-29T10:18:44.996Z,33.41
2023-04-29T10:21:11.507Z,30.69
2023-04-29T10:23:38.150Z,31.22
2023-04-29T10:26:04.623Z,30.17
2023-04-29T10:28:32.548Z,29.55
2023-04-29T10:31:04.904Z,28.20
2023-04-29T10:33:31.741Z,27.93
2023-04-29T10:35:58.214Z,30.94
2023-04-29T10:38:36.945Z,31.74
2023-04-29T10:41:06.843Z,30.68
2023-04-29T10:43:33.376Z,31.47
2023-04-29T10:46:18.848Z,31.37
2023-04-29T10:48:49.819Z,32.74
2023-04-29T10:51:31.357Z,34.56
2023-04-29T10:54:01.703Z,35.38
2023-04-29T10:56:37.943Z,36.79
2023-04-29T10:59:04.445Z,36.76
2023-04-29T11:01:43.697Z,33.71
2023-04-29T11:04:11.448Z,30.26
2023-04-29T11:06:40.135Z,26.47
2023-04-29T11:09:12.156Z,24.41
2023-04-29T11:11:46.436Z,21.94
2023-04-29T11:14:13.601Z,22.09
2023-04-29T11:16:51.899Z,20.03
2023-04-29T11:19:18.607Z,19.72
2023-04-29T11:21:46.589Z,21.81
2023-04-29T11:24:15.510Z,22.74
2023-04-29T11:26:42.705Z,21.33
2023-04-29T11:29:12.009Z,21.83
2023-04-29T11:31:41.361Z,21.39
2023-04-29T11:34:08.138Z,20.61
2023-04-29T11:36:34.752Z,20.49
2023-04-29T11:39:02.229Z,20.65
2023-04-29T11:41:28.771Z,20.86
2023-04-29T11:43:57.566Z,21.64
2023-04-29T11:46:24.092Z,20.06
2023-04-29T11:48:50.784Z,18.82
2023-04-29T11:51:17.865Z,19.69
2023-04-29T11:53:44.486Z,18.51
2023-04-29T11:56:11.385Z,18.08
2023-04-29T11:58:37.927Z,17.12
2023-04-29T12:01:04.437Z,15.22
2023-04-29T12:03:32.332Z,17.94
2023-04-29T12:05:59.008Z,16.90
2023-04-29T12:08:26.394Z,15.16
2023-04-29T12:10:54.163Z,15.97
2023-04-29T12:13:20.665Z,17.59
2023-04-29T12:15:47.833Z,19.08
2023-04-29T12:18:14.511Z,17.44
2023-04-29T12:20:41.042Z,16.50
2023-04-29T12:23:14.839Z,15.81
2023-04-29T12:25:41.559Z,16.34
2023-04-29T12:28:14.332Z,16.41
2023-04-29T12:30:40.751Z,15.99
2023-04-29T12:33:09.198Z,15.48
2023-04-29T12:35:36.920Z,15.08
2023-04-29T12:38:03.575Z,15.74
2023-04-29T12:40:30.465Z,15.17
2023-04-29T12:42:57.003Z,14.75
2023-04-29T12:45:27.894Z,17.08
2023-04-29T12:47:56.323Z,18.34
2023-04-29T12:50:29.856Z,22.18
2023-04-29T12:52:56.396Z,22.73
2023-04-29T12:55:22.896Z,20.39
2023-04-29T12:57:49.357Z,18.09
2023-04-29T13:00:16.000Z,17.25
2023-04-29T13:02:42.603Z,16.16
2023-04-29T13:05:09.485Z,14.72
2023-04-29T13:07:37.105Z,13.65
2023-04-29T13:10:06.316Z,12.65
2023-04-29T13:12:33.221Z,11.26
2023-04-29T13:15:00.019Z,10.60
2023-04-29T13:17:26.568Z,10.26
2023-04-29T13:19:53.092Z,10.01
2023-04-29T13:22:19.590Z,11.30
2023-04-29T13:24:46.639Z,10.60
2023-04-29T13:27:13.216Z,11.39
2023-04-29T13:29:40.039Z,11.73
2023-04-29T13:32:06.609Z,13.36
2023-04-29T13:34:33.257Z,12.55
2023-04-29T13:36:59.774Z,12.87
2023-04-29T13:39:26.255Z,12.76
2023-04-29T13:41:58.174Z,12.69
2023-04-29T13:44:33.240Z,13.04
2023-04-29T13:47:06.219Z,12.60
2023-04-29T13:57:50.100Z,12.26
2023-04-29T13:59:53.172Z,12.30
2023-04-29T14:04:49.754Z,13.46
2023-04-29T14:07:16.725Z,12.00
2023-04-29T14:09:43.234Z,10.74
2023-04-29T14:12:09.735Z,10.59
2023-04-29T14:14:36.210Z,11.24
2023-04-29T14:17:03.693Z,11.71
2023-04-29T14:19:30.263Z,10.99
2023-04-29T14:21:56.738Z,10.66
2023-04-29T14:24:23.216Z,11.87
2023-04-29T14:26:49.690Z,12.94
2023-04-29T14:29:16.309Z,14.28
2023-04-29T14:31:42.813Z,15.85
2023-04-29T14:34:09.526Z,15.45
2023-04-29T14:36:36.011Z,15.35
2023-04-29T14:39:03.870Z,16.49
2023-04-29T14:41:30.354Z,16.65
2023-04-29T14:43:56.871Z,18.10
2023-04-29T14:46:23.485Z,19.00
2023-04-29T14:48:50.057Z,19.10
2023-04-29T14:51:16.560Z,18.54
2023-04-29T14:53:43.058Z,19.29
2023-04-29T14:56:09.560Z,18.83
2023-04-29T14:58:36.154Z,19.18
2023-04-29T15:01:02.624Z,19.20
2023-04-29T15:03:29.177Z,19.98
2023-04-29T15:05:56.226Z,22.06
2023-04-29T15:08:22.771Z,23.89
2023-04-29T15:10:50.132Z,26.57
2023-04-29T15:13:16.709Z,26.73
2023-04-29T15:15:43.232Z,26.33
2023-04-29T15:18:09.859Z,28.20
2023-04-29T15:20:36.859Z,26.90
2023-04-29T15:23:03.938Z,28.20
2023-04-29T15:25:30.972Z,31.00
2023-04-29T15:27:59.018Z,32.74
2023-04-29T15:30:28.275Z,34.83
2023-04-29T15:32:55.174Z,35.63
2023-04-29T15:35:22.766Z,37.35
2023-04-29T15:37:49.464Z,36.58
2023-04-29T15:40:16.887Z,37.87
2023-04-29T15:42:43.465Z,36.22
2023-04-29T15:45:10.587Z,33.27
2023-04-29T15:47:37.430Z,30.12
2023-04-29T15:50:04.658Z,28.58
2023-04-29T15:52:31.160Z,28.28
2023-04-29T15:54:58.395Z,28.54
2023-04-29T15:57:25.877Z,30.42
2023-04-29T15:59:52.596Z,31.46
2023-04-29T16:02:20.394Z,33.55
2023-04-29T16:04:46.945Z,34.49
2023-04-29T16:07:13.538Z,36.71
2023-04-29T16:09:40.020Z,37.16
2023-04-29T16:12:06.539Z,36.77
2023-04-29T16:14:33.300Z,37.19
2023-04-29T16:17:00.144Z,36.22
2023-04-29T16:19:26.967Z,35.84
2023-04-29T16:21:53.423Z,36.93
2023-04-29T16:24:19.913Z,38.26
2023-04-29T16:26:48.126Z,40.31
2023-04-29T16:29:14.587Z,41.26
2023-04-29T16:31:41.142Z,43.12
2023-04-29T16:34:07.671Z,44.15
2023-04-29T16:36:34.411Z,45.79
2023-04-29T16:39:00.926Z,45.78
2023-04-29T16:41:27.708Z,46.37
2023-04-29T16:43:54.177Z,47.04
2023-04-29T16:46:20.713Z,47.36
2023-04-29T16:48:47.359Z,48.14
2023-04-29T16:51:13.941Z,48.85
2023-04-29T16:53:40.398Z,48.69
2023-04-29T16:56:07.401Z,49.65
2023-04-29T16:58:33.932Z,48.83
2023-04-29T17:01:00.535Z,50.01
2023-04-29T17:03:27.015Z,50.67
2023-04-29T17:05:54.228Z,49.98
2023-04-29T17:08:21.616Z,49.20
2023-04-29T17:10:48.149Z,48.61
2023-04-29T17:13:14.695Z,49.25
2023-04-29T17:15:41.781Z,49.63
2023-04-29T17:18:08.315Z,50.03
2023-04-29T17:20:35.244Z,49.43
2023-04-29T17:23:01.909Z,49.89
2023-04-29T17:25:28.825Z,50.04
2023-04-29T17:27:55.383Z,49.90
2023-04-29T17:30:23.122Z,49.36
2023-04-29T17:32:50.503Z,49.17
2023-04-29T17:35:17.097Z,49.51
2023-04-29T17:37:44.479Z,50.21
2023-04-29T17:40:11.349Z,50.00
2023-04-29T17:42:37.913Z,49.54
2023-04-29T17:45:04.800Z,49.58
2023-04-29T17:47:31.384Z,50.03
2023-04-29T17:50:00.261Z,49.11
2023-04-29T17:52:28.795Z,50.28
2023-04-29T17:54:55.343Z,50.35
2023-04-29T17:57:21.854Z,50.63
2023-04-29T17:59:48.867Z,50.85
2023-04-29T18:02:15.767Z,51.68
2023-04-29T18:04:42.547Z,53.34
2023-04-29T18:07:09.012Z,53.03
2023-04-29T18:09:35.512Z,53.98
2023-04-29T18:12:02.319Z,55.62
2023-04-29T18:14:30.535Z,56.79
2023-04-29T18:16:59.020Z,59.20
2023-04-29T18:19:25.802Z,60.93
2023-04-29T18:21:52.597Z,62.72
2023-04-29T18:24:19.064Z,63.30
2023-04-29T18:26:45.537Z,63.07
2023-04-29T18:29:11.983Z,64.43
2023-04-29T18:31:38.554Z,64.05
2023-04-29T18:34:05.225Z,64.82
2023-04-29T18:36:32.062Z,65.15
2023-04-29T18:38:58.536Z,65.76
2023-04-29T18:41:25.268Z,67.57
2023-04-29T18:43:51.759Z,67.11
2023-04-29T18:46:18.348Z,64.77
2023-04-29T18:48:44.927Z,63.53
2023-04-29T18:51:11.710Z,60.92
2023-04-29T18:53:38.210Z,60.23
2023-04-29T18:56:04.828Z,60.51
2023-04-29T18:58:31.354Z,63.25
2023-04-29T19:00:59.903Z,62.40
2023-04-29T19:03:27.091Z,62.01
2023-04-29T19:05:53.631Z,61.96
2023-04-29T19:08:20.228Z,65.73
2023-04-29T19:10:46.764Z,64.62
2023-04-29T19:13:13.296Z,64.80
2023-04-29T19:15:39.810Z,64.78
2023-04-29T19:18:06.291Z,64.51
2023-04-29T19:20:32.826Z,65.09
2023-04-29T19:22:59.273Z,64.27
2023-04-29T19:25:28.532Z,64.26
2023-04-29T19:27:55.052Z,64.52
2023-04-29T19:30:21.693Z,65.01
2023-04-29T19:32:48.661Z,64.47
2023-04-29T19:35:15.505Z,64.66
2023-04-29T19:37:42.028Z,65.47
2023-04-29T19:40:11.186Z,65.06
2023-04-29T19:42:38.026Z,62.16
2023-04-29T19:45:07.525Z,63.10
2023-04-29T19:47:34.796Z,63.67
2023-04-29T19:50:01.984Z,63.42
2023-04-29T19:52:29.669Z,63.32
2023-04-29T19:54:56.246Z,63.25
2023-04-29T19:57:22.736Z,63.43
2023-04-29T19:59:49.266Z,63.91
2023-04-29T20:02:15.829Z,64.50
2023-04-29T20:04:42.310Z,64.67
2023-04-29T20:07:08.768Z,65.35
2023-04-29T20:09:35.317Z,65.43
2023-04-29T20:12:03.745Z,65.92
2023-04-29T20:14:30.204Z,66.22
2023-04-29T20:16:58.952Z,66.58
2023-04-29T20:19:26.924Z,66.04
2023-04-29T20:21:53.663Z,66.60
2023-04-29T20:24:20.189Z,67.39
2023-04-29T20:26:46.651Z,68.24
2023-04-29T20:29:13.144Z,68.82
2023-04-29T20:31:39.667Z,69.04
2023-04-29T20:34:06.235Z,69.71
2023-04-29T20:36:32.766Z,70.05
2023-04-29T20:38:59.236Z,70.13
2023-04-29T20:41:29.093Z,70.68
2023-04-29T20:43:56.029Z,71.22
2023-04-29T20:46:24.612Z,71.30
2023-04-29T20:48:52.437Z,71.67
2023-04-29T20:51:18.958Z,70.75
2023-04-29T20:53:45.906Z,72.30
2023-04-29T20:56:13.540Z,72.42
2023-04-29T20:58:40.032Z,73.17
2023-04-29T21:01:06.546Z,73.65
2023-04-29T21:03:33.027Z,73.47
2023-04-29T21:05:59.526Z,73.35
2023-04-29T21:08:26.187Z,74.56
2023-04-29T21:10:52.710Z,74.98
2023-04-29T21:13:19.185Z,75.54
2023-04-29T21:15:46.446Z,74.79
2023-04-29T21:18:13.414Z,74.50
2023-04-29T21:20:39.991Z,74.72
2023-04-29T21:23:06.477Z,74.93
2023-04-29T21:25:33.568Z,74.77
2023-04-29T21:28:00.039Z,74.99
2023-04-29T21:30:26.795Z,75.24
2023-04-29T21:32:53.946Z,74.51
2023-04-29T21:35:20.647Z,74.77
2023-04-29T21:37:47.356Z,74.65
2023-04-29T21:40:14.424Z,73.64
2023-04-29T21:42:41.636Z,73.33
2023-04-29T21:45:08.256Z,73.37
2023-04-29T21:47:34.804Z,72.92
2023-04-29T21:50:01.327Z,73.17
2023-04-29T21:52:27.809Z,73.04
2023-04-29T21:54:54.356Z,72.60
2023-04-29T21:57:28.840Z,72.49
2023-04-29T22:00:10.628Z,72.50
2023-04-29T22:02:42.369Z,72.83
2023-04-29T22:05:09.219Z,73.05
2023-04-29T22:07:35.732Z,73.50
2023-04-29T22:10:02.402Z,73.35
2023-04-29T22:12:28.890Z,73.85
2023-04-29T22:14:55.881Z,73.58
2023-04-29T22:17:22.386Z,73.63
2023-04-29T22:19:49.364Z,73.88
2023-04-29T22:22:15.824Z,74.17
2023-04-29T22:24:42.326Z,73.95
2023-04-29T22:27:08.790Z,73.85
2023-04-29T22:29:35.440Z,73.42
2023-04-29T22:32:02.077Z,73.75
2023-04-29T22:34:28.797Z,73.92
2023-04-29T22:36:55.285Z,73.81
2023-04-29T22:39:21.729Z,73.58
2023-04-29T22:41:48.259Z,73.41
2023-04-29T22:44:15.462Z,73.56
2023-04-29T22:46:41.970Z,73.83
2023-04-29T22:49:08.546Z,74.00
2023-04-29T22:51:35.133Z,73.79
2023-04-29T22:54:01.627Z,73.83
2023-04-29T22:56:28.873Z,73.92
2023-04-29T22:58:55.514Z,73.83
2023-04-29T23:01:22.091Z,74.02
2023-04-29T23:03:48.574Z,73.57
2023-04-29T23:06:15.067Z,73.83
2023-04-29T23:08:41.545Z,73.80
2023-04-29T23:11:08.035Z,73.34
2023-04-29T23:13:34.507Z,73.47
2023-04-29T23:16:01.449Z,73.24
2023-04-29T23:18:27.997Z,73.02
2023-04-29T23:20:55.563Z,72.82
2023-04-29T23:23:22.101Z,72.77
2023-04-29T23:25:49.020Z,72.61
2023-04-29T23:28:16.343Z,72.41
2023-04-29T23:30:42.881Z,72.32
2023-04-29T23:33:09.513Z,72.45
2023-04-29T23:35:36.222Z,72.14
2023-04-29T23:38:02.694Z,72.25
2023-04-29T23:40:30.228Z,72.05
2023-04-29T23:42:57.729Z,71.96
2023-04-29T23:45:24.186Z,71.75
2023-04-29T23:47:50.692Z,71.50
2023-04-29T23:50:17.240Z,71.32
2023-04-29T23:52:43.865Z,71.44
2023-04-29T23:55:10.433Z,71.61
2023-04-29T23:57:36.887Z,72.08
